Terminal Aerodrome Forecast
Issued by NWS

Home | Current Version | Previous Version | Graphics & Text | Print | Product List | Glossary Off
Versions: 1 2 3 4 5 6 7 8 9 10 11 12

000
FTUS42 KMHX 211736
TAFISO
TAF
KISO 211736Z 2118/2218 09006KT P6SM SCT200
     FM220100 12005KT P6SM SCT025 BKN035
     FM220900 VRB03KT P6SM SCT040
      AMD LTD TO CLD VIS AND WIND=

USA.gov is the U.S. government's official web portal to all federal, state and local government web resources and services.